createdAt,value
2023-03-17T00:00:47.366Z,7.95
2023-03-17T00:05:40.932Z,7.95
2023-03-17T00:10:34.027Z,13.65
2023-03-17T00:15:27.761Z,10.73
2023-03-17T00:20:33.173Z,15.57
2023-03-17T00:25:30.577Z,12.32
2023-03-17T00:30:24.874Z,12.82
2023-03-17T00:35:20.851Z,14.60
2023-03-17T00:40:31.802Z,12.75
2023-03-17T00:45:33.385Z,8.75
2023-03-17T00:50:28.761Z,12.45
2023-03-17T00:55:21.640Z,12.65
2023-03-17T01:00:30.202Z,10.98
2023-03-17T01:05:24.822Z,7.75
2023-03-17T01:10:21.480Z,9.35
2023-03-17T01:15:16.249Z,7.03
2023-03-17T01:20:17.030Z,8.65
2023-03-17T01:25:12.618Z,7.03
2023-03-17T01:30:08.720Z,10.50
2023-03-17T01:35:01.695Z,7.05
2023-03-17T01:39:55.405Z,9.75
2023-03-17T01:45:09.489Z,14.65
2023-03-17T01:50:11.355Z,10.38
2023-03-17T01:55:13.228Z,8.05
2023-03-17T02:00:07.428Z,13.83
2023-03-17T02:05:12.419Z,11.10
2023-03-17T02:10:07.473Z,11.18
2023-03-17T02:15:04.055Z,10.70
2023-03-17T02:19:57.635Z,12.43
2023-03-17T02:24:57.132Z,10.05
2023-03-17T02:29:51.207Z,9.63
2023-03-17T02:34:44.381Z,10.48
2023-03-17T02:39:38.083Z,12.68
2023-03-17T02:44:31.780Z,8.20
2023-03-17T02:49:24.937Z,12.88
2023-03-17T02:54:17.928Z,8.35
2023-03-17T02:59:11.460Z,12.05
2023-03-17T03:04:04.629Z,9.27
2023-03-17T03:08:58.176Z,13.43
2023-03-17T03:13:51.172Z,11.50
2023-03-17T03:18:44.360Z,9.18
2023-03-17T03:23:38.387Z,8.07
2023-03-17T03:28:31.680Z,8.73
2023-03-17T03:33:25.181Z,10.15
2023-03-17T03:38:18.279Z,9.95
2023-03-17T03:43:22.535Z,8.95
2023-03-17T03:48:16.382Z,11.13
2023-03-17T03:53:09.451Z,9.45
2023-03-17T03:58:02.626Z,18.00
2023-03-17T04:02:56.018Z,11.10
2023-03-17T04:07:50.345Z,10.35
2023-03-17T04:12:44.469Z,7.85
2023-03-17T04:17:38.149Z,9.23
2023-03-17T04:22:32.614Z,10.75
2023-03-17T04:27:25.934Z,7.80
2023-03-17T04:32:19.987Z,8.43
2023-03-17T04:37:13.713Z,7.95
2023-03-17T04:42:08.478Z,13.02
2023-03-17T04:47:01.538Z,10.02
2023-03-17T04:51:54.793Z,11.10
2023-03-17T04:56:47.560Z,12.20
2023-03-17T05:01:40.235Z,8.07
2023-03-17T05:06:33.432Z,11.10
2023-03-17T05:11:26.338Z,14.15
2023-03-17T05:16:18.340Z,10.35
2023-03-17T05:21:12.871Z,12.32
2023-03-17T05:26:07.415Z,8.70
2023-03-17T05:31:00.633Z,8.00
2023-03-17T05:35:53.990Z,13.55
2023-03-17T05:40:49.302Z,12.50
2023-03-17T05:45:43.324Z,13.27
2023-03-17T05:50:38.308Z,11.25
2023-03-17T05:55:31.512Z,9.40
2023-03-17T06:00:25.054Z,13.30
2023-03-17T06:05:19.025Z,9.32
2023-03-17T06:10:14.708Z,6.53
2023-03-17T06:15:10.281Z,18.05
2023-03-17T06:20:04.806Z,10.38
2023-03-17T06:24:58.021Z,14.55
2023-03-17T06:29:51.417Z,21.42
2023-03-17T06:34:45.140Z,15.10
2023-03-17T06:39:38.122Z,16.52
2023-03-17T06:44:31.173Z,11.88
2023-03-17T06:49:24.162Z,14.75
2023-03-17T06:54:18.375Z,11.02
2023-03-17T06:59:12.267Z,9.68
2023-03-17T07:04:06.361Z,21.73
2023-03-17T07:09:02.203Z,9.65
2023-03-17T07:13:55.780Z,9.60
2023-03-17T07:18:48.881Z,13.55
2023-03-17T07:23:41.828Z,13.45
2023-03-17T07:28:35.411Z,10.85
2023-03-17T07:33:28.546Z,14.07
2023-03-17T07:38:22.473Z,9.75
2023-03-17T07:43:17.849Z,10.45
2023-03-17T07:48:11.547Z,9.13
2023-03-17T07:53:05.481Z,7.13
2023-03-17T07:57:59.628Z,15.50
2023-03-17T08:03:07.006Z,12.10
2023-03-17T08:08:01.977Z,15.13
2023-03-17T08:12:54.724Z,10.60
2023-03-17T08:17:48.370Z,12.10
2023-03-17T08:22:41.956Z,17.52
2023-03-17T08:27:34.449Z,14.20
2023-03-17T08:32:27.427Z,14.70
2023-03-17T08:37:22.322Z,21.98
2023-03-17T08:42:15.752Z,18.40
2023-03-17T08:47:08.757Z,17.17
2023-03-17T08:52:03.150Z,25.83
2023-03-17T08:56:57.430Z,20.27
2023-03-17T09:01:52.485Z,30.30
2023-03-17T09:07:01.941Z,28.77
2023-03-17T09:11:55.718Z,26.13
2023-03-17T09:16:50.442Z,23.23
2023-03-17T09:21:43.875Z,12.10
2023-03-17T09:26:37.672Z,7.43
2023-03-17T09:31:31.101Z,11.60
2023-03-17T09:36:25.003Z,13.38
2023-03-17T09:41:26.608Z,7.90
2023-03-17T09:46:25.517Z,14.25
2023-03-17T09:51:20.483Z,11.07
2023-03-17T09:56:15.619Z,6.20
2023-03-17T10:01:13.553Z,4.47
2023-03-17T10:06:37.050Z,6.32
2023-03-17T10:11:59.694Z,6.20
2023-03-17T10:16:58.774Z,2.72
2023-03-17T10:21:58.140Z,4.38
2023-03-17T10:26:53.639Z,4.07
2023-03-17T10:31:47.638Z,5.75
2023-03-17T10:36:43.261Z,4.47
2023-03-17T10:41:40.454Z,2.55
2023-03-17T10:46:33.924Z,2.15
2023-03-17T10:51:33.846Z,2.83
2023-03-17T10:56:28.380Z,4.03
2023-03-17T11:01:21.600Z,2.90
2023-03-17T11:06:19.511Z,6.70
2023-03-17T11:11:24.005Z,4.65
2023-03-17T11:16:25.905Z,3.88
2023-03-17T11:21:48.196Z,5.95
2023-03-17T11:26:43.797Z,3.70
2023-03-17T11:31:45.730Z,5.07
2023-03-17T11:36:50.920Z,3.50
2023-03-17T11:42:02.142Z,4.35
2023-03-17T11:47:06.829Z,3.30
2023-03-17T11:52:14.518Z,3.63
2023-03-17T11:57:33.157Z,5.13
2023-03-17T12:02:30.334Z,9.15
2023-03-17T12:12:28.201Z,5.57
2023-03-17T12:17:38.341Z,2.67
2023-03-17T12:22:35.994Z,2.97
2023-03-17T12:27:35.069Z,5.30
2023-03-17T12:32:33.989Z,3.35
2023-03-17T12:37:28.221Z,4.07
2023-03-17T12:42:41.744Z,5.13
2023-03-17T12:47:59.197Z,2.55
2023-03-17T12:53:29.956Z,4.30
2023-03-17T12:58:30.479Z,4.15
2023-03-17T13:03:30.788Z,3.53
2023-03-17T13:08:31.422Z,4.07
2023-03-17T13:14:28.854Z,2.90
2023-03-17T13:19:23.320Z,2.50
2023-03-17T13:24:18.796Z,3.38
2023-03-17T13:29:25.745Z,4.00
2023-03-17T13:34:20.741Z,5.05
2023-03-17T13:39:57.586Z,4.25
2023-03-17T13:45:34.067Z,3.97
2023-03-17T13:50:32.097Z,5.57
2023-03-17T13:55:24.935Z,3.95
2023-03-17T14:00:24.568Z,3.92
2023-03-17T14:05:25.068Z,8.45
2023-03-17T14:10:22.189Z,4.53
2023-03-17T14:15:52.015Z,3.35
2023-03-17T14:21:04.699Z,6.28
2023-03-17T14:26:00.863Z,8.00
2023-03-17T14:30:57.246Z,8.07
2023-03-17T14:35:52.902Z,6.93
2023-03-17T14:40:47.276Z,7.13
2023-03-17T14:45:50.023Z,6.15
2023-03-17T14:50:53.158Z,5.78
2023-03-17T14:55:47.463Z,4.78
2023-03-17T15:00:50.226Z,3.83
2023-03-17T15:05:46.106Z,5.75
2023-03-17T15:10:42.568Z,6.13
2023-03-17T15:15:38.732Z,5.78
2023-03-17T15:20:35.511Z,6.32
2023-03-17T15:25:50.941Z,5.15
2023-03-17T15:30:47.878Z,5.03
2023-03-17T15:35:42.271Z,5.22
2023-03-17T15:40:35.591Z,9.20
2023-03-17T15:45:28.320Z,5.10
2023-03-17T15:50:24.991Z,8.57
2023-03-17T15:55:22.021Z,7.15
2023-03-17T16:00:20.981Z,8.02
2023-03-17T16:05:24.348Z,6.93
2023-03-17T16:10:45.673Z,6.28
2023-03-17T16:15:41.399Z,4.47
2023-03-17T16:20:42.608Z,5.35
2023-03-17T16:25:37.689Z,7.78
2023-03-17T16:30:33.946Z,8.82
2023-03-17T16:35:27.465Z,7.57
2023-03-17T16:40:29.589Z,7.18
2023-03-17T16:45:25.590Z,6.35
2023-03-17T16:50:20.400Z,6.95
2023-03-17T16:55:14.330Z,9.57
2023-03-17T17:00:10.313Z,9.77
2023-03-17T17:05:03.207Z,5.90
2023-03-17T17:09:55.852Z,8.70
2023-03-17T17:14:49.088Z,10.63
2023-03-17T17:19:43.348Z,11.35
2023-03-17T17:24:36.438Z,7.82
2023-03-17T17:29:32.292Z,9.30
2023-03-17T17:34:26.821Z,9.73
2023-03-17T17:39:20.592Z,13.48
2023-03-17T17:44:14.306Z,9.40
2023-03-17T17:49:07.520Z,10.48
2023-03-17T17:54:00.850Z,10.50
2023-03-17T17:58:54.782Z,10.23
2023-03-17T18:03:48.139Z,11.60
2023-03-17T18:08:41.594Z,11.00
2023-03-17T18:13:39.669Z,13.00
2023-03-17T18:18:32.883Z,9.82
2023-03-17T18:23:25.877Z,10.77
2023-03-17T18:28:19.338Z,17.10
2023-03-17T18:33:18.591Z,15.52
2023-03-17T18:38:12.691Z,19.15
2023-03-17T18:43:06.046Z,19.73
2023-03-17T18:47:59.596Z,22.65
2023-03-17T18:52:53.001Z,17.85
2023-03-17T18:57:46.428Z,16.73
2023-03-17T19:02:38.900Z,18.13
2023-03-17T19:07:32.909Z,24.90
2023-03-17T19:12:25.799Z,17.08
2023-03-17T19:17:19.308Z,13.52
2023-03-17T19:22:13.578Z,15.10
2023-03-17T19:27:07.224Z,14.52
2023-03-17T19:32:00.866Z,14.57
2023-03-17T19:36:54.440Z,17.13
2023-03-17T19:41:48.607Z,16.75
2023-03-17T19:46:42.223Z,16.45
2023-03-17T19:51:35.909Z,16.30
2023-03-17T19:56:29.841Z,14.27
2023-03-17T20:01:23.915Z,21.17
2023-03-17T20:06:17.448Z,22.60
2023-03-17T20:11:12.026Z,14.55
2023-03-17T20:16:08.086Z,13.68
2023-03-17T20:21:05.993Z,15.23
2023-03-17T20:25:59.398Z,29.80
2023-03-17T20:30:53.984Z,13.38
2023-03-17T20:35:47.785Z,17.92
2023-03-17T20:40:40.856Z,21.13
2023-03-17T20:45:34.728Z,14.68
2023-03-17T20:50:27.918Z,22.65
2023-03-17T20:55:21.556Z,19.75
2023-03-17T21:00:20.486Z,19.83
2023-03-17T21:05:20.235Z,19.02
2023-03-17T21:10:13.451Z,40.60
2023-03-17T21:15:09.661Z,23.00
2023-03-17T21:20:03.667Z,17.90
2023-03-17T21:24:57.650Z,32.70
2023-03-17T21:29:52.049Z,24.38
2023-03-17T21:34:47.314Z,41.00
2023-03-17T21:39:40.621Z,26.08
2023-03-17T21:44:34.403Z,28.45
2023-03-17T21:49:27.615Z,21.08
2023-03-17T21:54:20.730Z,19.33
2023-03-17T21:59:15.576Z,22.40
2023-03-17T22:04:10.052Z,20.73
2023-03-17T22:09:04.754Z,19.83
2023-03-17T22:13:59.222Z,19.33
2023-03-17T22:18:53.574Z,16.63
2023-03-17T22:23:48.324Z,20.00
2023-03-17T22:28:42.422Z,15.65
2023-03-17T22:33:35.959Z,18.92
2023-03-17T22:38:28.896Z,18.73
2023-03-17T22:43:22.109Z,13.90
2023-03-17T22:48:15.533Z,17.50
2023-03-17T22:53:10.033Z,22.48
2023-03-17T22:58:04.226Z,18.08
2023-03-17T23:02:57.579Z,24.17
2023-03-17T23:07:51.733Z,24.38
2023-03-17T23:12:45.554Z,17.80
2023-03-17T23:17:38.402Z,19.25
2023-03-17T23:22:31.678Z,17.55
2023-03-17T23:27:24.791Z,15.48
2023-03-17T23:32:18.961Z,22.30
2023-03-17T23:37:12.237Z,21.35
2023-03-17T23:42:05.887Z,21.73
2023-03-17T23:46:58.701Z,19.48
2023-03-17T23:51:53.661Z,17.00
2023-03-17T23:56:47.066Z,18.88
